.
WxDataArchive / Data Records for 2011-06-09
2011-06-08 June 2011 2011-06-10

Data Records for Thursday, 09 June 2011

Time	Temp	Chill	HIndex	Humid	Dewpt	 Wind 	HiWind	WindDir	Rain 	Barom 
-----	----	-----	------	-----	-----	------	------	-------	-----	----- 
00:00	83.6	83.6	86.4	58	67.2	0	4	292	0.00	29.824 
00:05	83.6	83.6	86.4	58	67.2	1	3	292	0.00	29.824 
00:10	83.4	83.4	86.1	58	67.0	1	4	315	0.00	29.824 
00:15	83.4	83.4	86.1	58	67.0	1	3	315	0.00	29.834 
00:20	83.4	83.4	86.1	58	67.0	1	3	292	0.00	29.834 
00:25	83.2	83.2	85.8	58	66.9	1	4	248	0.00	29.834 
00:30	83.2	83.2	85.8	58	66.9	1	4	248	0.00	29.840 
00:35	83.2	83.2	85.8	58	66.9	1	4	270	0.00	29.840 
00:40	83.0	83.0	85.7	59	67.2	1	3	270	0.00	29.840 
00:45	83.0	83.0	85.7	59	67.2	1	4	248	0.00	29.849 
00:50	82.8	82.8	85.6	60	67.5	1	2	202	0.00	29.849 
00:55	82.8	82.8	85.6	60	67.5	1	3	248	0.00	29.849 
01:00	82.6	82.6	85.3	60	67.3	1	3	248	0.00	29.852 
01:05	82.6	82.6	85.3	60	67.3	1	5	248	0.00	29.852 
01:10	82.4	82.4	85.0	60	67.1	1	3	248	0.00	29.852 
01:15	82.4	82.4	85.2	61	67.6	1	5	248	0.00	29.858 
01:20	82.4	82.4	85.2	61	67.6	1	3	248	0.00	29.858 
01:25	82.4	82.4	85.2	61	67.6	1	4	270	0.00	29.858 
01:30	82.2	82.2	84.9	61	67.4	1	3	270	0.00	29.863 
01:35	82.2	82.2	84.9	61	67.4	1	3	270	0.00	29.863 
01:40	82.2	82.2	84.9	61	67.4	1	4	248	0.00	29.863 
01:45	82.2	82.2	84.9	61	67.4	1	4	292	0.00	29.865 
01:50	82.2	82.2	85.1	62	67.9	0	2	292	0.00	29.865 
01:55	82.0	82.0	84.8	62	67.7	0	3	248	0.00	29.865 
02:00	82.0	82.0	84.8	62	67.7	1	3	248	0.00	29.864 
02:05	82.0	82.0	84.8	62	67.7	0	4	248	0.00	29.864 
02:10	81.8	81.8	84.5	62	67.5	1	3	248	0.00	29.864 
02:15	81.8	81.8	84.5	62	67.5	0	3	248	0.00	29.862 
02:20	81.8	81.8	84.5	62	67.5	1	5	248	0.00	29.862 
02:25	81.8	81.8	84.7	63	67.9	1	2	248	0.00	29.862 
02:30	81.8	81.8	84.7	63	67.9	1	4	292	0.00	29.872 
02:35	82.0	82.0	85.0	63	68.1	3	5	270	0.00	29.872 
02:40	82.0	82.0	84.8	62	67.7	4	10	270	0.00	29.872 
02:45	82.0	82.0	83.9	57	65.2	3	9	315	0.00	29.893 
02:50	81.6	81.6	82.3	50	61.1	4	10	292	0.00	29.893 
02:55	81.1	81.1	81.7	49	60.1	5	11	292	0.00	29.893 
03:00	80.1	80.1	80.7	48	58.6	4	9	315	0.00	29.916 
03:05	78.5	78.5	79.8	53	59.9	5	11	292	0.00	29.916 
03:10	77.4	77.4	79.0	54	59.4	4	12	292	0.00	29.916 
03:15	76.7	76.7	78.5	55	59.3	3	11	292	0.00	29.945 
03:20	76.1	76.1	78.1	57	59.7	3	8	315	0.00	29.945 
03:25	74.7	74.7	74.7	64	61.7	1	4	270	0.01	29.945 
03:30	72.7	72.7	72.7	68	61.5	2	5	292	0.00	29.948 
03:35	71.6	71.6	71.6	69	60.9	2	4	292	0.00	29.948 
03:40	71.5	71.5	71.5	69	60.8	2	5	292	0.00	29.948 
03:45	71.5	71.5	71.5	69	60.8	2	4	315	0.00	29.953 
03:50	71.3	71.3	71.3	68	60.2	1	4	315	0.00	29.953 
03:55	71.5	71.5	71.5	67	60.0	2	6	292	0.00	29.953 
04:00	71.5	71.5	71.5	66	59.5	2	5	292	0.00	29.967 
04:05	71.6	71.6	71.6	66	59.6	1	4	270	0.00	29.967 
04:10	71.6	71.6	71.6	65	59.2	1	7	292	0.00	29.967 
04:15	71.6	71.6	71.6	65	59.2	1	5	270	0.00	29.958 
04:20	71.6	71.6	71.6	65	59.2	1	3	270	0.00	29.958 
04:25	71.6	71.6	71.6	65	59.2	0	2	292	0.00	29.958 
04:30	71.6	71.6	71.6	63	58.3	1	4	292	0.00	29.951 
04:35	71.6	71.6	71.6	63	58.3	0	3	292	0.00	29.951 
04:40	71.6	71.6	71.6	62	57.9	0	2	292	0.00	29.951 
04:45	71.8	71.8	71.8	63	58.5	0	1	292	0.00	29.953 
04:50	71.6	71.6	71.6	62	57.9	1	3	315	0.00	29.953 
04:55	71.6	71.6	71.6	62	57.9	0	3	45	0.00	29.953 
05:00	71.5	71.5	71.5	63	58.2	0	1	45	0.00	29.926 
05:05	71.3	71.3	71.3	63	58.0	0	1	45	0.00	29.926 
05:10	71.1	71.1	71.1	63	57.9	0	1	45	0.00	29.926 
05:15	70.9	70.9	70.9	63	57.7	0	1	45	0.00	29.934 
05:20	70.9	70.9	70.9	63	57.7	0	1	45	0.00	29.934 
05:25	70.8	70.8	70.8	64	58.0	0	1	45	0.00	29.934 
05:30	70.8	70.8	70.8	65	58.4	0	0	---	0.00	29.934 
05:35	70.6	70.6	70.6	65	58.2	0	0	---	0.00	29.934 
05:40	70.4	70.4	70.4	66	58.5	0	0	---	0.00	29.934 
05:45	70.3	70.3	70.3	66	58.4	0	0	---	0.00	29.938 
05:50	70.1	70.1	70.1	66	58.2	0	0	---	0.00	29.938 
05:55	70.1	70.1	70.1	68	59.0	0	0	---	0.00	29.938 
06:00	69.9	69.9	69.9	69	59.3	0	0	---	0.00	29.956 
06:05	69.8	69.8	69.8	69	59.2	0	0	---	0.00	29.956 
06:10	69.8	69.8	69.8	69	59.2	0	0	---	0.00	29.956 
06:15	69.8	69.8	69.8	69	59.2	0	0	---	0.00	29.956 
06:20	69.6	69.6	69.6	69	59.0	0	0	---	0.00	29.956 
06:25	69.4	69.4	69.4	71	59.6	0	0	---	0.00	29.956 
06:30	69.4	69.4	69.4	74	60.7	0	1	45	0.00	29.986 
06:35	69.1	69.1	69.1	75	60.8	0	1	45	0.00	29.986 
06:40	68.9	68.9	68.9	75	60.6	0	1	45	0.00	29.986 
06:45	68.8	68.8	68.8	77	61.3	0	1	45	0.00	30.001 
06:50	68.6	68.6	68.6	78	61.5	0	1	45	0.00	30.001 
06:55	68.3	68.3	68.3	78	61.2	0	1	45	0.00	30.001 
07:00	68.1	68.1	68.1	76	60.2	0	3	45	0.00	29.985 
07:05	68.3	68.3	68.3	76	60.4	0	2	315	0.00	29.985 
07:10	68.6	68.6	68.6	76	60.7	1	5	270	0.00	29.985 
07:15	68.6	68.6	68.6	76	60.7	0	1	270	0.00	29.975 
07:20	68.8	68.8	68.8	76	60.9	1	3	270	0.00	29.975 
07:25	68.6	68.6	68.6	77	61.1	0	0	---	0.00	29.975 
07:30	68.6	68.6	68.6	78	61.5	0	1	270	0.00	29.970 
07:35	68.6	68.6	68.6	78	61.5	0	1	270	0.00	29.970 
07:40	68.6	68.6	68.6	79	61.8	0	0	---	0.00	29.970 
07:45	68.6	68.6	68.6	79	61.8	0	0	---	0.00	29.955 
07:50	68.4	68.4	68.4	79	61.6	0	1	270	0.00	29.955 
07:55	68.4	68.4	68.4	79	61.6	0	1	270	0.00	29.955 
08:00	68.4	68.4	68.4	80	62.0	0	1	270	0.00	29.938 
08:05	68.6	68.6	68.6	80	62.2	0	0	---	0.00	29.938 
08:10	68.6	68.6	68.6	80	62.2	0	1	270	0.00	29.938 
08:15	68.6	68.6	68.6	79	61.8	0	1	270	0.00	29.947 
08:20	68.8	68.8	68.8	79	62.0	0	1	270	0.00	29.947 
08:25	68.9	68.9	68.9	79	62.1	0	1	270	0.00	29.947 
08:30	69.1	69.1	69.1	78	61.9	0	1	270	0.01	29.942 
08:35	69.3	69.3	69.3	77	61.8	1	2	270	0.00	29.942 
08:40	69.1	69.1	69.1	79	62.3	2	4	270	0.02	29.942 
08:45	68.3	68.3	68.3	82	62.6	1	3	270	0.01	29.974 
08:50	67.6	67.6	67.6	82	61.9	2	6	270	0.00	29.974 
08:55	67.3	67.3	67.3	84	62.3	1	4	270	0.00	29.974 
09:00	67.1	67.1	67.1	84	62.1	3	6	270	0.00	30.001 
09:05	67.3	67.3	67.3	85	62.6	2	4	270	0.02	30.001 
09:10	66.9	66.9	66.9	86	62.6	3	6	270	0.00	30.001 
09:15	66.6	66.6	66.6	87	62.6	2	5	270	0.01	29.977 
09:20	66.6	66.6	66.6	88	62.9	1	3	270	0.00	29.977 
09:25	66.6	66.6	66.6	88	62.9	1	3	270	0.00	29.977 
09:30	66.8	66.8	66.8	88	63.1	1	3	270	0.00	29.975 
09:35	66.8	66.8	66.8	87	62.8	1	4	270	0.00	29.975 
09:40	67.1	67.1	67.1	87	63.1	0	2	270	0.00	29.975 
09:45	67.3	67.3	67.3	88	63.6	0	1	270	0.00	29.961 
09:50	67.4	67.4	67.4	87	63.4	0	1	270	0.00	29.961 
09:55	67.6	67.6	67.6	86	63.3	0	2	270	0.00	29.961 
10:00	67.8	67.8	67.8	84	62.8	1	4	270	0.00	29.960 
10:05	68.1	68.1	68.1	84	63.1	0	2	270	0.00	29.960 
10:10	68.3	68.3	68.3	83	62.9	0	3	270	0.00	29.960 
10:15	68.4	68.4	68.4	81	62.3	1	3	315	0.00	29.961 
10:20	68.8	68.8	68.8	80	62.4	0	3	248	0.00	29.961 
10:25	69.3	69.3	69.3	79	62.5	0	2	248	0.00	29.961 
10:30	69.8	69.8	69.8	75	61.5	1	3	248	0.00	29.950 
10:35	70.3	70.3	70.3	75	62.0	1	3	248	0.00	29.950 
10:40	70.6	70.6	70.6	74	61.9	1	2	248	0.00	29.950 
10:45	70.9	70.9	70.9	74	62.2	1	3	248	0.00	29.953 
10:50	71.3	71.3	71.3	73	62.2	1	3	248	0.00	29.953 
10:55	71.6	71.6	71.6	72	62.1	1	4	248	0.00	29.953 
11:00	72.1	72.1	72.1	72	62.6	1	3	248	0.00	29.956 
11:05	72.5	72.5	72.5	70	62.1	1	3	248	0.00	29.956 
11:10	72.7	72.7	72.7	69	61.9	1	5	270	0.00	29.956 
11:15	72.7	72.7	72.7	69	61.9	1	5	248	0.00	29.957 
11:20	72.8	72.8	72.8	68	61.6	2	4	270	0.00	29.957 
11:25	73.2	73.2	73.2	67	61.6	1	4	270	0.00	29.957 
11:30	73.7	73.7	73.7	66	61.6	1	4	270	0.00	29.958 
11:35	74.0	74.0	74.0	66	61.9	2	4	270	0.00	29.958 
11:40	74.2	74.2	74.2	64	61.2	2	5	248	0.00	29.958 
11:45	74.4	74.4	74.4	65	61.8	2	5	248	0.00	29.974 
11:50	74.2	74.2	74.2	65	61.7	3	6	270	0.00	29.974 
11:55	74.2	74.2	74.2	65	61.7	4	7	270	0.00	29.974 
12:00	74.2	74.2	74.2	66	62.1	4	7	292	0.00	30.010 
12:05	74.0	74.0	74.0	65	61.5	4	11	270	0.00	30.010 
12:10	73.9	73.9	73.9	64	60.9	5	8	270	0.00	30.010 
12:15	73.7	73.7	73.7	65	61.2	5	13	270	0.00	30.022 
12:20	73.2	73.2	73.2	65	60.7	5	12	315	0.00	30.022 
12:25	72.5	72.5	72.5	67	60.9	3	5	315	0.00	30.022 
12:30	71.6	71.6	71.6	68	60.5	5	9	270	0.00	30.021 
12:35	71.3	71.3	71.3	70	61.0	3	9	315	0.00	30.021 
12:40	70.9	70.9	70.9	71	61.0	3	7	315	0.00	30.021 
12:45	70.6	70.6	70.6	73	61.5	3	7	270	0.00	30.020 
12:50	70.3	70.3	70.3	74	61.6	5	13	270	0.00	30.020 
12:55	69.9	69.9	69.9	76	62.0	4	10	270	0.00	30.020 
13:00	69.6	69.6	69.6	77	62.1	4	7	270	0.00	30.022 
13:05	69.8	69.8	69.8	77	62.3	3	6	270	0.00	30.022 
13:10	69.6	69.6	69.6	78	62.4	4	7	270	0.00	30.022 
13:15	69.6	69.6	69.6	79	62.8	3	7	270	0.00	29.999 
13:20	69.9	69.9	69.9	80	63.4	2	6	270	0.00	29.999 
13:25	70.1	70.1	70.1	79	63.3	2	4	270	0.00	29.999 
13:30	70.3	70.3	70.3	78	63.1	2	3	0	0.00	29.962 
13:35	70.3	70.3	70.3	78	63.1	1	4	292	0.00	29.962 
13:40	70.4	70.4	70.4	78	63.2	2	4	292	0.00	29.962 
13:45	70.6	70.6	70.6	76	62.7	2	3	292	0.00	29.957 
13:50	70.8	70.8	70.8	77	63.2	0	2	292	0.00	29.957 
13:55	70.8	70.8	70.8	77	63.2	0	1	292	0.00	29.957 
14:00	70.8	70.8	70.8	78	63.6	0	1	292	0.00	29.947 
14:05	70.8	70.8	70.8	77	63.2	0	1	292	0.00	29.947 
14:10	70.8	70.8	70.8	78	63.6	0	1	292	0.00	29.947 
14:15	70.8	70.8	70.8	78	63.6	0	1	292	0.00	29.931 
14:20	70.9	70.9	70.9	80	64.4	0	2	292	0.00	29.931 
14:25	71.5	71.5	71.5	78	64.3	1	3	22	0.00	29.931 
14:30	72.0	72.0	72.0	77	64.4	0	1	22	0.00	29.908 
14:35	72.5	72.5	72.5	74	63.7	0	1	22	0.00	29.908 
14:40	73.2	73.2	73.2	73	64.0	0	1	22	0.00	29.908 
14:45	73.5	73.5	73.5	70	63.1	0	1	22	0.00	29.903 
14:50	74.2	74.2	74.2	71	64.2	0	1	22	0.00	29.903 
14:55	74.9	74.9	74.9	68	63.6	0	1	22	0.00	29.903 
15:00	75.8	75.8	77.7	65	63.2	0	1	22	0.00	29.913 
15:05	76.3	76.3	78.2	62	62.3	0	2	22	0.00	29.913 
15:10	77.2	77.2	79.0	61	62.7	0	2	22	0.00	29.913 
15:15	77.9	77.9	79.6	62	63.8	0	2	22	0.00	29.923 
15:20	78.8	78.8	80.3	58	62.8	0	2	22	0.00	29.923 
15:25	79.6	79.6	80.8	54	61.5	0	2	22	0.00	29.923 
15:30	79.8	79.8	81.0	54	61.7	1	3	315	0.00	29.926 
15:35	79.9	79.9	80.8	51	60.1	1	4	315	0.00	29.926 
15:40	80.3	80.3	81.2	51	60.5	1	3	292	0.00	29.926 
15:45	80.9	80.9	82.0	53	62.1	0	2	292	0.00	29.926 
15:50	81.1	81.1	82.0	51	61.2	1	3	292	0.00	29.926 
15:55	81.1	81.1	81.8	50	60.7	2	5	270	0.00	29.926 
16:00	81.2	81.2	82.1	51	61.3	1	3	270	0.00	29.925 
16:05	81.4	81.4	82.1	50	60.9	1	3	270	0.00	29.925 
16:10	81.4	81.4	82.1	50	60.9	1	3	270	0.00	29.925 
16:15	81.2	81.2	82.1	51	61.3	1	3	270	0.00	29.929 
16:20	81.4	81.4	82.1	50	60.9	0	2	315	0.00	29.929 
16:25	81.4	81.4	82.3	51	61.5	1	3	315	0.00	29.929 
16:30	80.9	80.9	81.5	49	59.9	1	2	315	0.00	29.929 
16:35	80.9	80.9	81.9	52	61.6	1	5	315	0.00	29.929 
16:40	80.9	80.9	82.0	53	62.1	1	4	292	0.00	29.929 
16:45	80.9	80.9	81.6	50	60.5	1	4	315	0.00	29.929 
16:50	80.9	80.9	81.8	51	61.0	1	3	315	0.00	29.929 
16:55	80.7	80.7	81.4	50	60.3	2	5	315	0.00	29.929 
17:00	80.7	80.7	81.6	51	60.9	2	5	270	0.00	29.929 
17:05	81.1	81.1	82.1	52	61.8	0	1	270	0.00	29.929 
17:10	81.1	81.1	81.7	49	60.1	1	2	292	0.00	29.929 
17:15	80.7	80.7	81.4	50	60.3	1	2	292	0.00	29.936 
17:20	80.9	80.9	81.9	52	61.6	0	2	292	0.00	29.936 
17:25	80.9	80.9	82.3	55	63.2	0	2	292	0.00	29.936 
17:30	80.5	80.5	82.3	59	64.8	0	2	292	0.00	29.946 
17:35	80.1	80.1	81.9	60	64.9	0	1	292	0.00	29.946 
17:40	79.9	79.9	81.8	61	65.2	0	2	292	0.00	29.946 
17:45	79.9	79.9	81.9	62	65.7	0	2	292	0.00	29.946 
17:50	79.8	79.8	81.6	60	64.7	0	2	292	0.00	29.946 
17:55	79.4	79.4	81.1	60	64.3	0	3	292	0.00	29.946 
18:00	79.0	79.0	80.7	60	63.9	0	2	292	0.00	29.949 
18:05	78.8	78.8	80.5	61	64.2	0	2	292	0.00	29.949 
18:10	79.0	79.0	80.8	62	64.8	0	3	292	0.00	29.949 
18:15	79.2	79.2	81.0	61	64.6	0	2	292	0.00	29.948 
18:20	79.2	79.2	81.1	62	65.0	0	2	292	0.00	29.948 
18:25	79.2	79.2	81.0	61	64.6	0	3	292	0.00	29.948 
18:30	79.0	79.0	80.8	61	64.4	0	4	292	0.00	29.945 
18:35	79.0	79.0	80.8	61	64.4	0	2	292	0.00	29.945 
18:40	79.0	79.0	80.8	61	64.4	1	3	292	0.00	29.945 
18:45	78.8	78.8	80.5	60	63.7	1	4	292	0.00	29.947 
18:50	78.8	78.8	80.5	61	64.2	0	2	292	0.00	29.947 
18:55	78.6	78.6	80.3	61	64.0	0	3	292	0.00	29.947 
19:00	78.5	78.5	80.2	60	63.4	0	2	292	0.00	29.946 
19:05	78.5	78.5	80.2	61	63.9	1	4	45	0.00	29.946 
19:10	78.1	78.1	79.8	61	63.5	0	4	112	0.00	29.946 
19:15	78.1	78.1	79.8	61	63.5	0	3	90	0.00	29.950 
19:20	77.9	77.9	79.6	62	63.8	1	6	112	0.00	29.950 
19:25	77.7	77.7	79.4	61	63.2	1	5	68	0.00	29.950 
19:30	77.6	77.6	79.4	62	63.5	0	2	90	0.00	29.951 
19:35	77.4	77.4	79.2	62	63.3	0	3	292	0.00	29.951 
19:40	77.4	77.4	79.1	61	62.9	0	1	292	0.00	29.951 
19:45	77.0	77.0	78.8	60	62.0	0	2	292	0.00	29.958 
19:50	77.0	77.0	78.8	62	63.0	0	2	292	0.00	29.958 
19:55	76.7	76.7	78.5	62	62.7	0	1	292	0.00	29.958 
20:00	76.5	76.5	78.4	62	62.5	0	1	292	0.00	29.965 
20:05	76.3	76.3	78.2	63	62.8	0	0	---	0.00	29.965 
20:10	76.1	76.1	78.0	63	62.6	0	0	---	0.00	29.965 
20:15	76.0	76.0	77.9	63	62.5	0	1	292	0.00	29.971 
20:20	75.8	75.8	77.7	65	63.2	0	0	---	0.00	29.971 
20:25	75.6	75.6	77.5	65	63.0	0	1	292	0.00	29.971 
20:30	75.4	75.4	77.3	66	63.2	0	1	292	0.00	29.973 
20:35	75.3	75.3	77.2	67	63.6	0	2	292	0.00	29.973 
20:40	75.1	75.1	76.9	68	63.8	0	1	292	0.00	29.973 
20:45	74.9	74.9	74.9	68	63.6	0	1	292	0.00	29.981 
20:50	74.7	74.7	74.7	68	63.4	0	1	292	0.00	29.981 
20:55	74.6	74.6	74.6	69	63.7	0	1	292	0.00	29.981 
21:00	74.4	74.4	74.4	69	63.5	0	0	---	0.00	29.986 
21:05	74.2	74.2	74.2	69	63.4	0	2	292	0.00	29.986 
21:10	74.0	74.0	74.0	69	63.2	0	1	292	0.00	29.986 
21:15	74.0	74.0	74.0	69	63.2	0	0	---	0.00	29.988 
21:20	73.9	73.9	73.9	69	63.1	0	0	---	0.00	29.988 
21:25	73.7	73.7	73.7	69	62.9	0	0	---	0.00	29.988 
21:30	73.5	73.5	73.5	69	62.7	0	0	---	0.00	29.985 
21:35	73.5	73.5	73.5	70	63.1	0	1	292	0.00	29.985 
21:40	73.2	73.2	73.2	71	63.2	0	0	---	0.00	29.985 
21:45	73.0	73.0	73.0	72	63.4	0	0	---	0.00	29.985 
21:50	72.8	72.8	72.8	72	63.2	0	0	---	0.00	29.985 
21:55	72.7	72.7	72.7	73	63.5	0	0	---	0.00	29.985 
22:00	72.3	72.3	72.3	73	63.1	0	0	---	0.00	29.988 
22:05	72.3	72.3	72.3	74	63.5	0	1	292	0.00	29.988 
22:10	72.1	72.1	72.1	74	63.3	0	0	---	0.00	29.988 
22:15	72.0	72.0	72.0	75	63.6	0	1	292	0.00	29.984 
22:20	71.8	71.8	71.8	75	63.4	0	0	---	0.00	29.984 
22:25	71.6	71.6	71.6	76	63.6	0	0	---	0.00	29.984 
22:30	71.3	71.3	71.3	76	63.3	0	0	---	0.00	29.984 
22:35	71.3	71.3	71.3	76	63.3	0	0	---	0.00	29.984 
22:40	71.1	71.1	71.1	76	63.1	0	0	---	0.00	29.984 
22:45	70.9	70.9	70.9	76	62.9	0	1	292	0.00	29.987 
22:50	70.9	70.9	70.9	75	62.6	0	3	292	0.00	29.987 
22:55	70.9	70.9	70.9	75	62.6	0	1	292	0.00	29.987 
23:00	70.8	70.8	70.8	76	62.8	0	0	---	0.00	29.986 
23:05	70.8	70.8	70.8	76	62.8	0	1	292	0.00	29.986 
23:10	70.6	70.6	70.6	76	62.7	0	1	292	0.00	29.986 
23:15	70.6	70.6	70.6	76	62.7	0	0	---	0.00	29.985 
23:20	70.4	70.4	70.4	77	62.8	0	1	292	0.00	29.985 
23:25	70.4	70.4	70.4	77	62.8	0	1	292	0.00	29.985 
23:30	70.4	70.4	70.4	77	62.8	0	2	292	0.00	29.977 
23:35	70.4	70.4	70.4	77	62.8	1	3	90	0.00	29.977 
23:40	70.3	70.3	70.3	77	62.7	1	3	90	0.00	29.977 
23:45	70.3	70.3	70.3	78	63.1	1	3	90	0.00	29.966 
23:50	70.3	70.3	70.3	78	63.1	1	4	90	0.00	29.966 
23:55	70.1	70.1	70.1	78	62.9	0	1	90	0.00	29.966 

CoCoRaHS
IN-AL-39
A2 Web Hosting
Creative Commons License
GoDaddy
search engine by freefind advanced

loaded 2018-11-17 23:02:08 • last modified 2010-11-18 10:43:29
Privacy PolicyDisclaimer
• wx.awcolley.com is powered by PmWiki v.2002016 •
• all content (unless otherwise noted) © 2018 A W Colley